Aviation Digital Data Service (ADDS)

Output produced by METARs form (1025 UTC 19 January 2019)
found at http://www.aviationweather.gov/metar/data/
 
UTAA 191000Z 21014G26KT 9999 FEW033CB SCT033 BKN100 09/M05 Q1014 R88/70D NOSIG
TAF AMD UTAA 190754Z 1908/2006 31016KT 6000 BKN010 SCT020CB 530009 
     TEMPO 1908/1916 26026G36KT 3000 -RA 
     TEMPO 1919/2005 2000 BR OVC004
       
UTAT 191000Z 23018G28KT 2200 -SN BR OVC010 M02/M03 Q1009 R26/69//40 TEMPO 23026G36KT 0500 +SHSN VV001
TAF UTAT 190438Z 1906/2006 22018G28KT 2000 SN BR SCT020CB OVC010 650100 530002 
     PROB40 
     TEMPO 1906/1912 25026G36KT 0500 +SHSN VV001
       
UTAM 191000Z 08006KT 9999 BKN033 SCT100 06/M00 Q1018 NOSIG
TAF UTAM 190430Z 1905/2006 05014KT 5000 SCT030CB BKN050 530005 
     TEMPO 1905/1909 02016KT 3000 BR -SNRA BKN010 
     TEMPO 1920/2003 1500 BR OVC004
       
UTAV 191000Z 31010KT CAVOK 05/M03 Q1016 NOSIG
TAF UTAV 190430Z 1906/2006 30014KT 5000 BKN020 SCT030CB 530003 
     TEMPO 1906/1912 24014G24KT 2000 BR -RASN OVC005
       
UTAK 191000Z 01008KT 9999 SCT033 OVC100 03/M01 Q1018 R34L/CLRD70 NOSIG
TAF UTAK 190430Z 1906/2006 35018G28KT 6000 -SHRA BKN012 SCT026CB OVC100 650120
530008 
     TEMPO 1906/1910 30018G28KT 4000 -SHRASN BKN005 OVC026